createdAt,value
2022-08-21T00:03:56.448Z,98265.28
2022-08-21T00:08:00.561Z,98253.19
2022-08-21T00:12:02.828Z,98253.81
2022-08-21T00:16:06.331Z,98265.13
2022-08-21T00:20:11.726Z,98268.81
2022-08-21T00:24:13.851Z,98272.19
2022-08-21T00:28:16.844Z,98263.28
2022-08-21T00:32:27.194Z,98257.22
2022-08-21T00:36:30.487Z,98251.38
2022-08-21T00:40:55.977Z,98263.00
2022-08-21T00:44:59.128Z,98257.28
2022-08-21T00:49:01.231Z,98260.78
2022-08-21T00:53:06.868Z,98257.06
2022-08-21T00:57:14.963Z,98251.22
2022-08-21T01:01:18.091Z,98251.34
2022-08-21T01:05:21.463Z,98257.72
2022-08-21T01:09:23.913Z,98255.69
2022-08-21T01:13:28.611Z,98250.50
2022-08-21T01:17:32.053Z,98246.22
2022-08-21T01:21:34.534Z,98245.75
2022-08-21T01:25:37.381Z,98240.03
2022-08-21T01:30:02.198Z,98251.09
2022-08-21T01:34:10.526Z,98246.69
2022-08-21T01:38:13.250Z,98249.53
2022-08-21T01:42:15.564Z,98245.41
2022-08-21T01:46:18.018Z,98243.53
2022-08-21T01:50:21.560Z,98234.00
2022-08-21T01:54:23.900Z,98235.25
2022-08-21T01:58:26.088Z,98230.53
2022-08-21T02:02:28.240Z,98226.75
2022-08-21T02:06:30.574Z,98227.69
2022-08-21T02:10:33.745Z,98219.75
2022-08-21T02:14:38.098Z,98214.66
2022-08-21T02:18:41.999Z,98220.38
2022-08-21T02:22:44.207Z,98225.81
2022-08-21T02:26:47.242Z,98234.03
2022-08-21T02:30:50.921Z,98230.41
2022-08-21T02:34:54.537Z,98226.91
2022-08-21T02:38:57.382Z,98221.50
2022-08-21T02:43:00.605Z,98219.13
2022-08-21T02:47:02.837Z,98216.94
2022-08-21T02:51:09.220Z,98223.25
2022-08-21T02:55:11.614Z,98222.81
2022-08-21T02:59:13.749Z,98211.53
2022-08-21T03:03:15.887Z,98211.53
2022-08-21T03:07:18.098Z,98202.66
2022-08-21T03:11:21.681Z,98213.47
2022-08-21T03:15:25.672Z,98193.50
2022-08-21T03:19:28.638Z,98193.16
2022-08-21T03:23:32.781Z,98193.63
2022-08-21T03:27:35.993Z,98198.09
2022-08-21T03:31:40.935Z,98202.69
2022-08-21T03:36:01.733Z,98204.25
2022-08-21T03:40:06.254Z,98203.63
2022-08-21T03:44:09.202Z,98213.41
2022-08-21T03:48:11.616Z,98215.44
2022-08-21T03:52:17.105Z,98204.53
2022-08-21T03:56:19.739Z,98193.44
2022-08-21T04:00:22.773Z,98189.03
2022-08-21T04:04:25.252Z,98190.75
2022-08-21T04:08:27.513Z,98189.06
2022-08-21T04:12:29.659Z,98190.94
2022-08-21T04:16:32.007Z,98184.47
2022-08-21T04:20:34.609Z,98184.47
2022-08-21T04:24:37.079Z,98188.72
2022-08-21T04:28:39.175Z,98194.25
2022-08-21T04:32:45.095Z,98198.53
2022-08-21T04:36:47.309Z,98215.28
2022-08-21T04:40:52.227Z,98208.63
2022-08-21T04:44:55.451Z,98210.03
2022-08-21T04:48:58.536Z,98209.75
2022-08-21T04:53:01.335Z,98196.31
2022-08-21T04:57:08.268Z,98197.28
2022-08-21T05:01:17.103Z,98213.47
2022-08-21T05:05:19.302Z,98204.28
2022-08-21T05:09:22.695Z,98199.16
2022-08-21T05:13:24.904Z,98206.94
2022-08-21T05:17:27.202Z,98204.56
2022-08-21T05:21:29.548Z,98209.59
2022-08-21T05:25:32.479Z,98206.06
2022-08-21T05:29:39.851Z,98201.47
2022-08-21T05:33:46.393Z,98198.31
2022-08-21T05:37:48.467Z,98211.56
2022-08-21T05:41:58.570Z,98208.53
2022-08-21T05:46:00.778Z,98206.91
2022-08-21T05:50:03.471Z,98216.78
2022-08-21T05:54:05.664Z,98217.66
2022-08-21T05:58:07.794Z,98216.19
2022-08-21T06:02:12.720Z,98218.84
2022-08-21T06:06:18.692Z,98212.13
2022-08-21T06:10:21.412Z,98216.06
2022-08-21T06:14:23.822Z,98220.53
2022-08-21T06:18:26.402Z,98218.38
2022-08-21T06:22:29.826Z,98214.91
2022-08-21T06:26:32.550Z,98215.75
2022-08-21T06:30:35.817Z,98213.88
2022-08-21T06:34:39.203Z,98212.22
2022-08-21T06:38:41.512Z,98215.03
2022-08-21T06:42:54.891Z,98222.75
2022-08-21T06:46:59.323Z,98217.72
2022-08-21T06:51:01.927Z,98221.34
2022-08-21T06:55:08.042Z,98223.94
2022-08-21T06:59:10.114Z,98213.78
2022-08-21T07:03:40.452Z,98212.09
2022-08-21T07:07:42.556Z,98217.66
2022-08-21T07:16:10.005Z,98204.66
2022-08-21T07:20:13.380Z,98203.94
2022-08-21T07:24:15.743Z,98198.69
2022-08-21T07:28:19.530Z,98203.13
2022-08-21T07:32:21.745Z,98201.47
2022-08-21T07:36:24.642Z,98196.59
2022-08-21T07:40:26.819Z,98205.81
2022-08-21T07:44:28.926Z,98203.00
2022-08-21T07:48:31.249Z,98212.84
2022-08-21T07:52:33.878Z,98203.38
2022-08-21T07:56:39.539Z,98197.44
2022-08-21T08:00:42.629Z,98193.84
2022-08-21T08:04:51.142Z,98188.38
2022-08-21T08:08:57.319Z,98192.34
2022-08-21T08:13:01.097Z,98177.97
2022-08-21T08:17:12.414Z,98182.59
2022-08-21T08:21:16.646Z,98185.56
2022-08-21T08:25:20.926Z,98178.69
2022-08-21T08:29:28.893Z,98189.94
2022-08-21T08:33:35.414Z,98176.38
2022-08-21T08:37:41.904Z,98178.09
2022-08-21T08:41:47.832Z,98184.78
2022-08-21T08:45:54.540Z,98178.78
2022-08-21T08:50:01.772Z,98168.59
2022-08-21T08:54:10.196Z,98172.13
2022-08-21T08:58:28.243Z,98165.59
2022-08-21T09:02:31.045Z,98165.72
2022-08-21T09:06:49.233Z,98159.13
2022-08-21T09:10:57.311Z,98155.88
2022-08-21T09:15:21.277Z,98152.19
2022-08-21T09:24:17.763Z,98140.97
2022-08-21T09:28:20.003Z,98129.19
2022-08-21T09:32:36.889Z,98132.75
2022-08-21T09:36:52.098Z,98127.03
2022-08-21T09:41:08.713Z,98130.34
2022-08-21T09:45:19.711Z,98120.63
2022-08-21T09:49:30.069Z,98114.19
2022-08-21T09:53:35.858Z,98103.28
2022-08-21T09:57:46.838Z,98107.28
2022-08-21T10:01:54.997Z,98107.09
2022-08-21T10:06:03.000Z,98101.69
2022-08-21T10:10:14.581Z,98090.47
2022-08-21T10:14:37.254Z,98096.44
2022-08-21T10:19:12.452Z,98100.78
2022-08-21T10:23:36.824Z,98093.88
2022-08-21T10:28:03.875Z,98087.31
2022-08-21T10:32:25.887Z,98081.06
2022-08-21T10:36:39.312Z,98083.03
2022-08-21T10:40:44.001Z,98067.41
2022-08-21T10:45:10.204Z,98068.97
2022-08-21T10:49:30.947Z,98055.59
2022-08-21T10:53:47.442Z,98056.78
2022-08-21T10:58:03.529Z,98056.00
2022-08-21T11:02:32.354Z,98056.75
2022-08-21T11:06:38.040Z,98050.47
2022-08-21T11:10:55.196Z,98039.47
2022-08-21T11:15:03.822Z,98040.59
2022-08-21T11:19:15.552Z,98032.31
2022-08-21T11:23:32.136Z,98024.84
2022-08-21T11:27:42.225Z,98027.84
2022-08-21T11:32:05.613Z,98012.41
2022-08-21T11:36:21.724Z,98013.91
2022-08-21T11:40:30.738Z,98015.53
2022-08-21T11:45:03.435Z,98012.31
2022-08-21T11:49:28.183Z,98015.03
2022-08-21T11:53:38.466Z,98004.53
2022-08-21T11:58:11.998Z,97986.50
2022-08-21T12:02:24.563Z,97982.84
2022-08-21T12:06:41.103Z,97983.59
2022-08-21T12:11:05.373Z,97986.50
2022-08-21T12:15:13.756Z,97974.19
2022-08-21T12:19:32.592Z,97980.41
2022-08-21T12:24:03.392Z,97972.69
2022-08-21T12:28:12.222Z,97969.81
2022-08-21T12:32:14.888Z,97953.63
2022-08-21T12:36:22.378Z,97956.22
2022-08-21T12:40:31.174Z,97958.16
2022-08-21T12:44:54.367Z,97970.69
2022-08-21T12:48:59.421Z,97973.16
2022-08-21T12:53:33.230Z,97962.88
2022-08-21T12:57:39.048Z,97960.13
2022-08-21T13:01:53.580Z,97969.25
2022-08-21T13:05:56.015Z,97969.69
2022-08-21T13:10:17.663Z,97993.56
2022-08-21T13:14:27.362Z,98002.13
2022-08-21T13:18:32.849Z,98012.59
2022-08-21T13:22:42.933Z,98025.16
2022-08-21T13:26:46.050Z,98018.88
2022-08-21T13:30:56.831Z,98000.38
2022-08-21T13:35:08.087Z,97994.47
2022-08-21T13:39:13.831Z,97980.03
2022-08-21T13:43:23.409Z,97964.22
2022-08-21T13:47:25.730Z,97954.34
2022-08-21T13:51:28.504Z,97952.50
2022-08-21T13:55:43.052Z,97956.88
2022-08-21T13:59:45.550Z,97957.63
2022-08-21T14:03:50.095Z,97958.97
2022-08-21T14:08:09.715Z,97946.56
2022-08-21T14:12:35.486Z,97962.75
2022-08-21T14:16:54.627Z,97953.06
2022-08-21T14:21:10.709Z,97941.00
2022-08-21T14:25:19.388Z,97928.03
2022-08-21T14:29:25.757Z,97929.25
2022-08-21T14:33:33.820Z,97934.16
2022-08-21T14:37:40.228Z,97942.25
2022-08-21T14:41:44.150Z,97937.44
2022-08-21T14:45:48.205Z,97945.31
2022-08-21T14:49:53.861Z,97952.78
2022-08-21T14:53:57.341Z,97945.09
2022-08-21T14:58:06.618Z,97936.53
2022-08-21T15:02:13.225Z,97937.09
2022-08-21T15:06:22.413Z,97956.28
2022-08-21T15:10:25.222Z,97943.25
2022-08-21T15:14:31.086Z,97922.97
2022-08-21T15:18:34.042Z,97918.03
2022-08-21T15:22:37.045Z,97908.09
2022-08-21T15:26:39.833Z,97927.31
2022-08-21T15:30:48.668Z,97930.13
2022-08-21T15:34:56.805Z,97906.81
2022-08-21T15:39:03.237Z,97886.41
2022-08-21T15:43:06.635Z,97890.56
2022-08-21T15:47:22.246Z,97895.88
2022-08-21T15:51:24.734Z,97903.81
2022-08-21T15:55:26.948Z,97907.69
2022-08-21T15:59:40.452Z,97915.81
2022-08-21T16:03:46.906Z,97903.16
2022-08-21T16:07:50.747Z,97900.28
2022-08-21T16:11:52.965Z,97889.84
2022-08-21T16:15:55.440Z,97888.84
2022-08-21T16:19:58.831Z,97897.00
2022-08-21T16:24:01.607Z,97908.41
2022-08-21T16:28:08.256Z,97925.41
2022-08-21T16:32:14.477Z,97924.34
2022-08-21T16:36:19.406Z,97917.06
2022-08-21T16:40:23.549Z,97909.38
2022-08-21T16:48:48.792Z,97926.31
2022-08-21T16:52:54.755Z,97924.00
2022-08-21T16:57:01.476Z,97932.47
2022-08-21T17:01:10.913Z,97932.47
2022-08-21T17:05:14.596Z,97933.88
2022-08-21T17:09:17.876Z,97921.13
2022-08-21T17:13:21.500Z,97921.94
2022-08-21T17:17:26.141Z,97928.16
2022-08-21T17:21:28.784Z,97929.31
2022-08-21T17:25:32.144Z,97923.03
2022-08-21T17:29:40.293Z,97920.72
2022-08-21T17:33:50.833Z,97930.50
2022-08-21T17:37:54.522Z,97917.56
2022-08-21T17:42:01.673Z,97929.63
2022-08-21T17:46:05.074Z,97928.72
2022-08-21T17:50:10.788Z,97937.50
2022-08-21T17:54:13.780Z,97939.69
2022-08-21T17:58:16.705Z,97929.78
2022-08-21T18:02:19.747Z,97926.84
2022-08-21T18:06:22.526Z,97934.56
2022-08-21T18:10:25.850Z,97932.44
2022-08-21T18:14:32.493Z,97936.50
2022-08-21T18:18:42.632Z,97940.91
2022-08-21T18:22:46.930Z,97949.41
2022-08-21T18:26:50.556Z,97951.19
2022-08-21T18:30:54.430Z,97955.25
2022-08-21T18:34:57.717Z,97965.28
2022-08-21T18:39:19.491Z,97966.63
2022-08-21T18:43:23.920Z,97960.44
2022-08-21T18:47:48.830Z,97963.31
2022-08-21T18:51:51.576Z,97958.66
2022-08-21T18:55:54.759Z,97964.81
2022-08-21T18:59:59.724Z,97959.59
2022-08-21T19:04:04.521Z,97959.75
2022-08-21T19:08:07.142Z,97959.63
2022-08-21T19:12:15.100Z,97961.13
2022-08-21T19:16:20.946Z,97947.84
2022-08-21T19:20:31.685Z,97952.78
2022-08-21T19:24:35.620Z,97956.03
2022-08-21T19:28:44.827Z,97958.53
2022-08-21T19:32:51.742Z,97955.94
2022-08-21T19:36:59.668Z,97966.72
2022-08-21T19:41:05.014Z,97965.72
2022-08-21T19:45:15.945Z,97964.47
2022-08-21T19:49:22.998Z,97967.28
2022-08-21T19:53:26.853Z,97959.31
2022-08-21T19:57:30.108Z,97959.84
2022-08-21T20:01:39.943Z,97962.53
2022-08-21T20:05:44.457Z,97956.75
2022-08-21T20:09:47.581Z,97952.94
2022-08-21T20:14:30.891Z,97959.91
2022-08-21T20:18:34.885Z,97961.13
2022-08-21T20:22:40.072Z,97965.50
2022-08-21T20:26:48.650Z,97969.78
2022-08-21T20:30:58.967Z,97967.34
2022-08-21T20:35:04.389Z,97963.44
2022-08-21T20:39:11.218Z,97975.53
2022-08-21T20:43:17.315Z,97972.59
2022-08-21T20:47:20.808Z,97986.22
2022-08-21T20:51:40.353Z,97984.41
2022-08-21T20:55:47.936Z,97984.75
2022-08-21T20:59:53.464Z,97995.81
2022-08-21T21:04:03.861Z,97997.72
2022-08-21T21:08:06.167Z,98002.91
2022-08-21T21:12:17.303Z,98003.34
2022-08-21T21:16:37.865Z,97993.09
2022-08-21T21:21:16.141Z,97999.06
2022-08-21T21:25:40.533Z,98007.28
2022-08-21T21:29:52.563Z,97995.69
2022-08-21T21:33:56.534Z,97993.31
2022-08-21T21:38:03.445Z,97998.50
2022-08-21T21:42:10.372Z,97992.09
2022-08-21T21:46:37.218Z,97992.31
2022-08-21T21:50:54.363Z,97985.88
2022-08-21T21:55:25.480Z,97988.22
2022-08-21T21:59:51.599Z,97983.91
2022-08-21T22:04:23.548Z,97985.72
2022-08-21T22:08:36.795Z,97980.25
2022-08-21T22:13:09.897Z,97977.88
2022-08-21T22:17:28.267Z,97985.06
2022-08-21T22:21:41.668Z,97983.84
2022-08-21T22:25:49.889Z,97995.75
2022-08-21T22:29:57.561Z,97997.31
2022-08-21T22:34:19.878Z,97992.50
2022-08-21T22:38:37.283Z,97997.72
2022-08-21T22:42:41.954Z,97995.00
2022-08-21T22:46:51.884Z,97992.25
2022-08-21T22:51:05.882Z,97994.16
2022-08-21T22:55:24.697Z,97996.19
2022-08-21T22:59:37.307Z,97998.69
2022-08-21T23:04:08.276Z,98005.41
2022-08-21T23:08:24.051Z,97986.06
2022-08-21T23:12:36.282Z,97991.19
2022-08-21T23:16:58.442Z,98004.22
2022-08-21T23:21:12.644Z,97992.69
2022-08-21T23:25:46.089Z,98000.94
2022-08-21T23:30:15.938Z,97994.47
2022-08-21T23:34:51.103Z,97988.09
2022-08-21T23:39:12.512Z,97988.09
2022-08-21T23:43:37.158Z,97983.22
2022-08-21T23:47:53.778Z,97988.16
2022-08-21T23:52:01.546Z,97977.09
2022-08-21T23:56:28.491Z,97967.00
